Terminal Aerodrome Forecast
Issued by NWS

Home | Current Version | Previous Version | Text Only | Print | Product List | Glossary On
Versions: 1 2 3 4 5 6 7 8 9 10 11 12 13 14 15 16 17 18 19 20 21 22 23 24
000
FTPA31 PHFO 301700
TAFJHM
TAF
PHJH 301738Z 3018/3118 04008KT P6SM FEW025
     FM302100 04012G20KT P6SM FEW025 SCT045
     FM310500 04010KT P6SM VCSH FEW025 BKN040
      AMD NOT SKED AFT 310400=

USA.gov is the U.S. government's official web portal to all federal, state and local government web resources and services.